Time;durP1;ratioP1;P1;durP2;ratioP2;P2;SDS_P1;SDS_P2;PMS_P1;PMS_P2;Temp;Humidity;BMP_temperature;BMP_pressure;BME280_temperature;BME280_humidity;BME280_pressure;Samples;Min_cycle;Max_cycle;Signal;HPM_P1;HPM_P2
2021/12/01 00:01:10;;;;;;;;;;;2.90;99.90;;;;;;5096815;28;19980;-47
2021/12/01 00:03:37;;;;;;;;;;;2.70;99.90;;;;;;5094833;28;19978;-47
2021/12/01 00:06:05;;;;;;;;;;;2.80;99.90;;;;;;5112547;28;19928;-47
2021/12/01 00:08:33;;;;;;;;;;;2.80;99.90;;;;;;5102418;28;19932;-47
2021/12/01 00:11:00;;;;;;;;;;;2.70;99.90;;;;;;5098136;28;19924;-47
2021/12/01 00:13:28;;;;;;;;;;;2.70;99.90;;;;;;5095437;28;19969;-47
2021/12/01 00:15:56;;;;;;;;;;;2.80;99.90;;;;;;5102255;28;20391;-48
2021/12/01 00:18:23;;;;;;;;;;;2.80;99.90;;;;;;5105233;28;20448;-48
2021/12/01 00:20:50;;;;;;;;;;;2.80;99.90;;;;;;5106857;28;19924;-47
2021/12/01 00:23:17;;;;;;;;;;;2.70;99.90;;;;;;5115816;28;19928;-48
2021/12/01 00:25:44;;;;;;;;;;;2.70;99.90;;;;;;5102305;28;19923;-47
2021/12/01 00:28:10;;;;;;;;;;;2.90;99.90;;;;;;5115801;28;19924;-47
2021/12/01 00:30:39;;;;;;;;;;;2.90;99.90;;;;;;5114104;28;19924;-47
2021/12/01 00:33:08;;;;;;;;;;;2.90;99.90;;;;;;5113769;28;19931;-47
2021/12/01 00:35:35;;;;;;;;;;;2.90;99.90;;;;;;5095001;28;19928;-47
2021/12/01 00:38:02;;;;;;;;;;;3.00;99.90;;;;;;5100441;28;20316;-47
2021/12/01 00:40:29;;;;;;;;;;;2.90;99.90;;;;;;5096538;28;19949;-47
2021/12/01 00:42:55;;;;;;;;;;;3.10;99.90;;;;;;5096277;28;19977;-47
2021/12/01 00:45:23;;;;;;;;;;;3.00;99.90;;;;;;5095343;28;19928;-46
2021/12/01 00:47:52;;;;;;;;;;;2.80;99.90;;;;;;5106390;28;19924;-47
2021/12/01 00:50:22;;;;;;;;;;;2.70;99.90;;;;;;5094521;28;20378;-47
2021/12/01 00:52:49;;;;;;;;;;;2.70;99.90;;;;;;5110878;28;19924;-47
2021/12/01 00:55:15;;;;;;;;;;;2.70;99.90;;;;;;5096164;28;19976;-45
2021/12/01 00:57:42;;;;;;;;;;;2.70;99.90;;;;;;5099834;28;19928;-47
2021/12/01 01:00:10;;;;;;;;;;;3.00;99.90;;;;;;5108859;28;20386;-46
2021/12/01 01:02:37;;;;;;;;;;;3.00;99.90;;;;;;5113773;28;20274;-47
2021/12/01 01:05:04;;;;;;;;;;;3.10;99.90;;;;;;5113759;28;20351;-47
2021/12/01 01:07:33;;;;;;;;;;;3.10;99.90;;;;;;5104402;28;20398;-47
2021/12/01 01:10:06;;;;;;;;;;;3.00;99.90;;;;;;5110837;28;19924;-47
2021/12/01 01:18:05;;;;;;;;;;;3.10;99.90;;;;;;5094242;28;19935;-47
2021/12/01 01:20:33;;;;;;;;;;;2.90;99.90;;;;;;5109279;28;19959;-47
2021/12/01 01:23:01;;;;;;;;;;;2.90;99.90;;;;;;5093970;28;19928;-47
2021/12/01 01:25:28;;;;;;;;;;;2.80;99.90;;;;;;5094612;28;20466;-47
2021/12/01 01:27:55;;;;;;;;;;;2.80;99.90;;;;;;5114284;28;19961;-48
2021/12/01 01:30:22;;;;;;;;;;;2.90;99.90;;;;;;5096615;28;19969;-47
2021/12/01 01:32:49;;;;;;;;;;;2.80;99.90;;;;;;5094007;28;19973;-47
2021/12/01 01:35:16;;;;;;;;;;;2.80;99.90;;;;;;5098990;28;19993;-46
2021/12/01 01:37:43;;;;;;;;;;;3.10;99.90;;;;;;5113129;28;19988;-47
2021/12/01 01:40:12;;;;;;;;;;;3.10;99.90;;;;;;5110519;28;19932;-47
2021/12/01 01:42:39;;;;;;;;;;;2.90;99.90;;;;;;5097552;28;20006;-47
2021/12/01 01:45:06;;;;;;;;;;;2.80;99.90;;;;;;5111089;28;19981;-46
2021/12/01 01:47:32;;;;;;;;;;;2.80;99.90;;;;;;5095867;28;19931;-48
2021/12/01 01:50:02;;;;;;;;;;;2.70;99.90;;;;;;5095233;28;20401;-47
2021/12/01 01:52:29;;;;;;;;;;;2.70;99.90;;;;;;5104566;28;19924;-47
2021/12/01 01:54:56;;;;;;;;;;;2.60;99.90;;;;;;5113851;28;19931;-48
2021/12/01 01:57:24;;;;;;;;;;;2.70;99.90;;;;;;5112617;28;19976;-47
2021/12/01 01:59:51;;;;;;;;;;;2.80;99.90;;;;;;5113899;28;19923;-47
2021/12/01 02:02:18;;;;;;;;;;;2.80;99.90;;;;;;5108924;27;20001;-47
2021/12/01 02:04:45;;;;;;;;;;;2.70;99.90;;;;;;5096336;28;19928;-47
2021/12/01 02:07:11;;;;;;;;;;;2.70;99.90;;;;;;5097066;28;19931;-47
2021/12/01 02:09:38;;;;;;;;;;;2.70;99.90;;;;;;5106980;28;20381;-47
2021/12/01 02:12:05;;;;;;;;;;;2.70;99.90;;;;;;5111552;28;19970;-47
2021/12/01 02:14:33;;;;;;;;;;;2.80;99.90;;;;;;5099818;28;19924;-47
2021/12/01 02:17:00;;;;;;;;;;;2.70;99.90;;;;;;5104061;28;19976;-48
2021/12/01 02:19:27;;;;;;;;;;;2.70;99.90;;;;;;5099895;28;19924;-47
2021/12/01 02:21:56;;;;;;;;;;;2.80;99.90;;;;;;5092802;28;19924;-46
2021/12/01 02:24:23;;;;;;;;;;;2.80;99.90;;;;;;5112260;28;19984;-47
2021/12/01 02:26:51;;;;;;;;;;;2.60;99.90;;;;;;5113103;28;19984;-46
2021/12/01 02:29:19;;;;;;;;;;;2.80;99.90;;;;;;5110376;28;20417;-45
2021/12/01 02:31:46;;;;;;;;;;;2.90;99.90;;;;;;5103033;28;20451;-46
2021/12/01 02:34:13;;;;;;;;;;;2.70;99.90;;;;;;5104995;28;19985;-47
2021/12/01 02:36:41;;;;;;;;;;;2.80;99.90;;;;;;5092511;28;20382;-47
2021/12/01 02:39:11;;;;;;;;;;;2.80;99.90;;;;;;5092626;28;19977;-47
2021/12/01 02:41:38;;;;;;;;;;;2.80;99.90;;;;;;5106463;28;20006;-47
2021/12/01 02:44:06;;;;;;;;;;;2.80;99.90;;;;;;5096778;28;19924;-46
2021/12/01 02:46:32;;;;;;;;;;;2.60;99.90;;;;;;5092382;28;20357;-46
2021/12/01 02:49:00;;;;;;;;;;;2.70;99.90;;;;;;5104538;28;20471;-47
2021/12/01 02:51:28;;;;;;;;;;;2.80;99.90;;;;;;5111021;28;19928;-46
2021/12/01 02:53:55;;;;;;;;;;;2.90;99.90;;;;;;5111061;28;19923;-48
2021/12/01 02:56:24;;;;;;;;;;;2.90;99.90;;;;;;5103527;28;19927;-47
2021/12/01 02:58:51;;;;;;;;;;;3.20;99.90;;;;;;5106624;28;19928;-47
2021/12/01 03:01:19;;;;;;;;;;;3.00;99.90;;;;;;5093362;28;19969;-47
2021/12/01 03:03:46;;;;;;;;;;;3.10;99.90;;;;;;5098035;28;19978;-47
2021/12/01 03:06:13;;;;;;;;;;;3.20;99.90;;;;;;5092129;28;19924;-47
2021/12/01 03:08:41;;;;;;;;;;;3.30;99.90;;;;;;5091996;28;19924;-48
2021/12/01 03:11:08;;;;;;;;;;;3.20;99.90;;;;;;5093460;28;19924;-46
2021/12/01 03:13:36;;;;;;;;;;;3.40;99.90;;;;;;5104477;28;19924;-47
2021/12/01 03:16:03;;;;;;;;;;;3.30;99.90;;;;;;5112219;28;19984;-47
2021/12/01 03:18:30;;;;;;;;;;;3.40;99.90;;;;;;5112508;28;19969;-47
2021/12/01 03:20:57;;;;;;;;;;;3.40;99.90;;;;;;5106864;28;19994;-47
2021/12/01 03:23:24;;;;;;;;;;;3.30;99.90;;;;;;5101711;28;19928;-46
2021/12/01 03:25:51;;;;;;;;;;;3.20;99.90;;;;;;5111146;28;19928;-47
2021/12/01 03:28:19;;;;;;;;;;;3.00;99.90;;;;;;5109618;28;19923;-47
2021/12/01 03:30:47;;;;;;;;;;;2.90;99.90;;;;;;5100494;28;19977;-47
2021/12/01 03:33:15;;;;;;;;;;;2.90;99.90;;;;;;5095913;28;19928;-47
2021/12/01 03:35:43;;;;;;;;;;;3.00;99.90;;;;;;5101263;28;20339;-47
2021/12/01 03:38:10;;;;;;;;;;;3.00;99.90;;;;;;5099245;28;19924;-47
2021/12/01 03:40:37;;;;;;;;;;;3.10;99.90;;;;;;5112251;28;19927;-47
2021/12/01 03:43:04;;;;;;;;;;;3.00;99.90;;;;;;5106466;28;20294;-48
2021/12/01 03:45:31;;;;;;;;;;;3.00;99.90;;;;;;5091827;28;19924;-47
2021/12/01 03:47:59;;;;;;;;;;;3.00;99.90;;;;;;5107871;28;19923;-47
2021/12/01 03:50:26;;;;;;;;;;;2.90;99.90;;;;;;5111944;28;19977;-48
2021/12/01 03:52:53;;;;;;;;;;;2.90;99.90;;;;;;5110432;28;20416;-47
2021/12/01 03:55:20;;;;;;;;;;;3.00;99.90;;;;;;5112006;28;19977;-47
2021/12/01 03:57:47;;;;;;;;;;;3.00;99.90;;;;;;5103605;28;19970;-47
2021/12/01 04:00:15;;;;;;;;;;;3.00;99.90;;;;;;5091819;28;19923;-47
2021/12/01 04:02:43;;;;;;;;;;;3.10;99.90;;;;;;5092561;28;19924;-47
2021/12/01 04:05:11;;;;;;;;;;;3.00;99.90;;;;;;5111984;28;19928;-48
2021/12/01 04:07:38;;;;;;;;;;;2.90;99.90;;;;;;5115830;28;19989;-47
2021/12/01 04:10:06;;;;;;;;;;;2.80;99.90;;;;;;5115977;28;19928;-46
2021/12/01 04:12:33;;;;;;;;;;;2.80;99.90;;;;;;5114775;28;19924;-46
2021/12/01 04:15:00;;;;;;;;;;;2.80;99.90;;;;;;5102212;28;19924;-47
2021/12/01 04:17:27;;;;;;;;;;;2.80;99.90;;;;;;5096066;28;20336;-46
2021/12/01 04:19:53;;;;;;;;;;;2.80;99.90;;;;;;5115573;28;20389;-47
2021/12/01 04:22:22;;;;;;;;;;;2.90;99.90;;;;;;5101584;28;19971;-46
2021/12/01 04:24:49;;;;;;;;;;;2.80;99.90;;;;;;5113776;28;19924;-47
2021/12/01 04:27:15;;;;;;;;;;;2.90;99.90;;;;;;5096867;28;19928;-47
2021/12/01 04:29:42;;;;;;;;;;;3.00;99.90;;;;;;5095099;28;19924;-47
2021/12/01 04:32:09;;;;;;;;;;;3.10;99.90;;;;;;5100133;28;19932;-47
2021/12/01 04:34:36;;;;;;;;;;;3.10;99.90;;;;;;5098317;28;19982;-46
2021/12/01 04:37:03;;;;;;;;;;;3.20;99.90;;;;;;5095051;28;19928;-47
2021/12/01 04:39:31;;;;;;;;;;;3.30;99.90;;;;;;5104028;28;19923;-47
2021/12/01 04:42:04;;;;;;;;;;;3.40;99.90;;;;;;5114965;28;19924;-47
2021/12/01 04:44:31;;;;;;;;;;;3.30;99.90;;;;;;5114445;28;19996;-47
2021/12/01 04:46:58;;;;;;;;;;;3.20;99.90;;;;;;5101517;28;19930;-47
2021/12/01 04:49:25;;;;;;;;;;;3.10;99.90;;;;;;5110209;28;19927;-46
2021/12/01 04:51:55;;;;;;;;;;;3.10;99.90;;;;;;5114489;28;20359;-47
2021/12/01 04:54:22;;;;;;;;;;;3.00;99.90;;;;;;5111353;28;19923;-47
2021/12/01 04:56:50;;;;;;;;;;;3.20;99.90;;;;;;5114920;28;19923;-46
2021/12/01 04:59:18;;;;;;;;;;;3.20;99.90;;;;;;5114046;28;19924;-47
2021/12/01 05:01:45;;;;;;;;;;;3.20;99.90;;;;;;5110415;28;19953;-47
2021/12/01 05:04:12;;;;;;;;;;;3.10;99.90;;;;;;5095593;28;20343;-47
2021/12/01 05:06:39;;;;;;;;;;;3.10;99.90;;;;;;5094199;28;19924;-48
2021/12/01 05:09:06;;;;;;;;;;;3.10;99.90;;;;;;5104163;28;19931;-46
2021/12/01 05:11:33;;;;;;;;;;;3.00;99.90;;;;;;5102273;28;20359;-46
2021/12/01 05:14:02;;;;;;;;;;;2.80;99.90;;;;;;5101738;28;19924;-48
2021/12/01 05:16:28;;;;;;;;;;;2.90;99.90;;;;;;5127964;22;19993;-52
2021/12/01 05:18:55;;;;;;;;;;;3.10;99.90;;;;;;5107436;28;19982;-54
2021/12/01 05:21:22;;;;;;;;;;;3.00;99.90;;;;;;5114305;28;19931;-52
2021/12/01 05:23:49;;;;;;;;;;;2.90;99.90;;;;;;5096847;28;19924;-54
2021/12/01 05:26:17;;;;;;;;;;;2.90;99.90;;;;;;5097246;28;19924;-53
2021/12/01 05:28:44;;;;;;;;;;;3.20;99.90;;;;;;5097196;28;20389;-53
2021/12/01 05:31:12;;;;;;;;;;;3.20;99.90;;;;;;5106812;28;19945;-52
2021/12/01 05:33:40;;;;;;;;;;;3.30;99.90;;;;;;5117218;28;19946;-53
2021/12/01 05:36:07;;;;;;;;;;;3.20;99.90;;;;;;5113878;28;19975;-51
2021/12/01 05:38:34;;;;;;;;;;;3.10;99.90;;;;;;5116158;28;19989;-53
2021/12/01 05:41:02;;;;;;;;;;;3.00;99.90;;;;;;5114690;28;19923;-53
2021/12/01 05:43:29;;;;;;;;;;;3.00;99.90;;;;;;5114268;28;19924;-53
2021/12/01 05:45:56;;;;;;;;;;;2.80;99.90;;;;;;5111762;28;19977;-54
2021/12/01 05:48:24;;;;;;;;;;;2.90;99.90;;;;;;5096286;28;19924;-53
2021/12/01 05:50:52;;;;;;;;;;;2.80;99.90;;;;;;5093398;28;19985;-52
2021/12/01 05:53:19;;;;;;;;;;;2.70;99.90;;;;;;5093622;28;19946;-52
2021/12/01 05:55:46;;;;;;;;;;;2.80;99.90;;;;;;5093846;28;19969;-54
2021/12/01 05:58:13;;;;;;;;;;;2.80;99.90;;;;;;5113171;28;19928;-52
2021/12/01 06:00:40;;;;;;;;;;;2.90;99.90;;;;;;5113983;28;19923;-53
2021/12/01 06:03:07;;;;;;;;;;;2.90;99.90;;;;;;5113929;28;19931;-53
2021/12/01 06:05:36;;;;;;;;;;;2.90;99.90;;;;;;5113441;28;19924;-52
2021/12/01 06:08:03;;;;;;;;;;;2.70;99.90;;;;;;5111132;28;20385;-51
2021/12/01 06:10:30;;;;;;;;;;;2.70;99.90;;;;;;5113683;28;20381;-52
2021/12/01 06:12:56;;;;;;;;;;;2.50;99.90;;;;;;5113223;28;19927;-51
2021/12/01 06:15:23;;;;;;;;;;;2.30;99.90;;;;;;5113464;28;19924;-51
2021/12/01 06:17:50;;;;;;;;;;;2.30;99.90;;;;;;5111640;28;20053;-51
2021/12/01 06:20:17;;;;;;;;;;;2.30;99.90;;;;;;5111231;27;19928;-51
2021/12/01 06:22:45;;;;;;;;;;;2.40;99.90;;;;;;5103716;28;20351;-51
2021/12/01 06:25:12;;;;;;;;;;;2.40;99.90;;;;;;5113105;28;19924;-51
2021/12/01 06:27:39;;;;;;;;;;;2.30;99.90;;;;;;5104952;28;19977;-54
2021/12/01 06:30:08;;;;;;;;;;;2.40;99.90;;;;;;5113496;28;20373;-52
2021/12/01 06:32:35;;;;;;;;;;;2.50;99.90;;;;;;5110400;28;19931;-55
2021/12/01 06:35:02;;;;;;;;;;;2.50;99.90;;;;;;5094448;28;19930;-52
2021/12/01 06:37:29;;;;;;;;;;;2.50;99.90;;;;;;5095168;28;19955;-53
2021/12/01 06:39:58;;;;;;;;;;;2.40;99.90;;;;;;5095532;28;19946;-53
2021/12/01 06:42:25;;;;;;;;;;;2.50;99.90;;;;;;5096468;28;19949;-54
2021/12/01 06:44:52;;;;;;;;;;;2.60;99.90;;;;;;5105812;28;19923;-52
2021/12/01 06:47:19;;;;;;;;;;;2.60;99.90;;;;;;5130289;28;19938;-54
2021/12/01 06:49:47;;;;;;;;;;;2.60;99.90;;;;;;5128866;28;19908;-55
2021/12/01 06:52:14;;;;;;;;;;;2.40;99.90;;;;;;5131321;28;19923;-54
2021/12/01 06:54:44;;;;;;;;;;;2.40;99.90;;;;;;5131681;28;19923;-53
2021/12/01 06:57:12;;;;;;;;;;;2.40;99.90;;;;;;5131212;28;19923;-52
2021/12/01 06:59:39;;;;;;;;;;;2.50;99.90;;;;;;5130599;28;19924;-54
2021/12/01 07:02:05;;;;;;;;;;;2.50;99.90;;;;;;5114836;28;19932;-55
2021/12/01 07:04:32;;;;;;;;;;;2.50;99.90;;;;;;5108518;28;19931;-53
2021/12/01 07:06:59;;;;;;;;;;;2.70;99.90;;;;;;5110259;28;19928;-53
2021/12/01 07:09:26;;;;;;;;;;;2.70;99.90;;;;;;5098729;28;20479;-53
2021/12/01 07:11:53;;;;;;;;;;;2.80;99.90;;;;;;5109601;28;19959;-53
2021/12/01 07:14:22;;;;;;;;;;;2.70;99.90;;;;;;5112419;28;19924;-53
2021/12/01 07:16:49;;;;;;;;;;;2.70;99.90;;;;;;5112601;28;19928;-52
2021/12/01 07:19:16;;;;;;;;;;;2.60;99.90;;;;;;5108114;28;19928;-52
2021/12/01 07:21:42;;;;;;;;;;;2.50;99.90;;;;;;5111051;28;19923;-53
2021/12/01 07:24:09;;;;;;;;;;;2.50;99.90;;;;;;5106478;28;19931;-53
2021/12/01 07:26:42;;;;;;;;;;;2.70;99.90;;;;;;5110156;28;19936;-54
2021/12/01 07:29:09;;;;;;;;;;;2.80;99.90;;;;;;5112203;28;19931;-53
2021/12/01 07:31:38;;;;;;;;;;;2.90;99.90;;;;;;5112226;28;20313;-54
2021/12/01 07:34:05;;;;;;;;;;;3.00;99.90;;;;;;5112647;28;19927;-53
2021/12/01 07:36:31;;;;;;;;;;;3.10;99.90;;;;;;5112207;28;19931;-53
2021/12/01 07:38:59;;;;;;;;;;;3.30;99.90;;;;;;5112034;28;19936;-54
2021/12/01 07:41:27;;;;;;;;;;;3.30;99.90;;;;;;5110594;27;19928;-55
2021/12/01 07:43:53;;;;;;;;;;;3.30;99.90;;;;;;5116423;27;20719;-55
2021/12/01 07:46:20;;;;;;;;;;;3.50;99.90;;;;;;5110207;27;19924;-53
2021/12/01 07:48:48;;;;;;;;;;;3.70;99.90;;;;;;5113658;27;19928;-54
2021/12/01 07:51:15;;;;;;;;;;;3.90;99.90;;;;;;5120760;27;19971;-54
2021/12/01 07:53:42;;;;;;;;;;;3.90;99.90;;;;;;5116065;27;19924;-54
2021/12/01 07:56:09;;;;;;;;;;;3.90;99.90;;;;;;5108990;27;19931;-54
2021/12/01 07:58:36;;;;;;;;;;;4.10;99.90;;;;;;5115453;27;19943;-53
2021/12/01 08:01:02;;;;;;;;;;;4.30;99.90;;;;;;5105490;27;20002;-54
2021/12/01 08:03:29;;;;;;;;;;;4.30;99.90;;;;;;5096627;27;19924;-54
2021/12/01 08:05:57;;;;;;;;;;;4.40;99.90;;;;;;5106118;27;19931;-53
2021/12/01 08:08:24;;;;;;;;;;;4.50;99.90;;;;;;5110400;27;19932;-54
2021/12/01 08:10:51;;;;;;;;;;;4.60;99.90;;;;;;5108307;27;19935;-54
2021/12/01 08:13:18;;;;;;;;;;;4.70;99.90;;;;;;5108076;27;19924;-54
2021/12/01 08:15:47;;;;;;;;;;;4.60;99.90;;;;;;5108536;27;19978;-53
2021/12/01 08:18:14;;;;;;;;;;;4.70;99.90;;;;;;5112956;27;20451;-52
2021/12/01 08:20:41;;;;;;;;;;;4.70;99.90;;;;;;5115337;27;20339;-52
2021/12/01 08:23:09;;;;;;;;;;;4.60;99.90;;;;;;5113895;27;20348;-52
2021/12/01 08:25:36;;;;;;;;;;;4.50;99.90;;;;;;5113645;27;19928;-54
2021/12/01 08:28:04;;;;;;;;;;;4.60;99.90;;;;;;5121996;27;19939;-54
2021/12/01 08:30:31;;;;;;;;;;;4.60;99.90;;;;;;5102027;27;19956;-54
2021/12/01 08:32:58;;;;;;;;;;;4.70;99.90;;;;;;5110966;27;19928;-54
2021/12/01 08:35:28;;;;;;;;;;;5.00;99.90;;;;;;5114000;27;19927;-55
2021/12/01 08:37:55;;;;;;;;;;;5.30;99.90;;;;;;5115113;27;19978;-54
2021/12/01 08:40:24;;;;;;;;;;;5.50;99.90;;;;;;5113462;27;19928;-53
2021/12/01 08:42:50;;;;;;;;;;;5.80;99.90;;;;;;5114241;27;19945;-54
2021/12/01 08:45:18;;;;;;;;;;;5.90;99.90;;;;;;5117865;27;19938;-52
2021/12/01 08:47:45;;;;;;;;;;;5.90;99.90;;;;;;5114635;27;19939;-53
2021/12/01 08:50:15;;;;;;;;;;;5.60;99.90;;;;;;5114831;27;19930;-55
2021/12/01 08:52:44;;;;;;;;;;;5.70;99.90;;;;;;5112868;27;19956;-54
2021/12/01 08:55:11;;;;;;;;;;;5.70;99.90;;;;;;5114084;27;19931;-52
2021/12/01 08:57:40;;;;;;;;;;;5.50;99.90;;;;;;5116555;27;19924;-54
2021/12/01 09:00:07;;;;;;;;;;;5.60;99.90;;;;;;5115613;27;20362;-54
2021/12/01 09:02:34;;;;;;;;;;;5.60;99.90;;;;;;5110552;27;20441;-54
2021/12/01 09:05:01;;;;;;;;;;;5.20;99.90;;;;;;5110994;27;20353;-53
2021/12/01 09:07:28;;;;;;;;;;;5.30;99.90;;;;;;5116239;27;19985;-54
2021/12/01 09:09:55;;;;;;;;;;;5.20;99.90;;;;;;5112524;27;19930;-56
2021/12/01 09:12:22;;;;;;;;;;;5.00;99.90;;;;;;5114622;27;19931;-53
2021/12/01 09:14:52;;;;;;;;;;;4.90;99.90;;;;;;5111430;27;20321;-53
2021/12/01 09:17:19;;;;;;;;;;;5.10;99.90;;;;;;5112665;27;19931;-54
2021/12/01 09:19:46;;;;;;;;;;;4.70;99.90;;;;;;5111559;27;19924;-55
2021/12/01 09:22:13;;;;;;;;;;;4.70;99.90;;;;;;5117532;27;19927;-53
2021/12/01 09:24:40;;;;;;;;;;;4.50;99.90;;;;;;5116405;27;19930;-56
2021/12/01 09:27:07;;;;;;;;;;;4.40;99.90;;;;;;5113606;27;20377;-54
2021/12/01 09:29:34;;;;;;;;;;;4.20;99.90;;;;;;5109958;27;19923;-53
2021/12/01 09:32:03;;;;;;;;;;;4.20;99.90;;;;;;5112046;27;19932;-53
2021/12/01 09:34:30;;;;;;;;;;;4.10;99.90;;;;;;5110086;27;20014;-52
2021/12/01 09:36:57;;;;;;;;;;;4.20;99.90;;;;;;5113798;27;19927;-53
2021/12/01 09:39:25;;;;;;;;;;;4.30;99.90;;;;;;5109020;27;19935;-53
2021/12/01 09:41:54;;;;;;;;;;;4.40;99.90;;;;;;5106722;27;20286;-53
2021/12/01 09:44:21;;;;;;;;;;;4.70;99.90;;;;;;5114437;27;19923;-55
2021/12/01 09:46:48;;;;;;;;;;;4.50;99.90;;;;;;5112286;27;20305;-53
2021/12/01 09:49:16;;;;;;;;;;;4.40;99.90;;;;;;5110512;27;19933;-53
2021/12/01 09:51:43;;;;;;;;;;;4.50;99.90;;;;;;5113086;27;19946;-53
2021/12/01 09:54:10;;;;;;;;;;;4.50;99.90;;;;;;5113517;27;20295;-53
2021/12/01 09:56:37;;;;;;;;;;;4.60;99.90;;;;;;5107413;27;19935;-55
2021/12/01 09:59:04;;;;;;;;;;;4.70;99.90;;;;;;5110254;27;19932;-53
2021/12/01 10:01:31;;;;;;;;;;;4.70;99.90;;;;;;5111609;27;20003;-53
2021/12/01 10:03:58;;;;;;;;;;;4.90;99.90;;;;;;5104562;27;19930;-54
2021/12/01 10:06:27;;;;;;;;;;;5.10;99.90;;;;;;5108199;27;20023;-54
2021/12/01 10:08:56;;;;;;;;;;;5.00;99.90;;;;;;5105001;27;20453;-55
2021/12/01 10:11:23;;;;;;;;;;;5.00;99.90;;;;;;5110220;27;20377;-53
2021/12/01 10:13:51;;;;;;;;;;;5.00;99.90;;;;;;5123409;27;20278;-53
2021/12/01 10:16:19;;;;;;;;;;;5.10;99.90;;;;;;5105709;27;19976;-53
2021/12/01 10:18:46;;;;;;;;;;;5.10;99.90;;;;;;5108038;27;19980;-54
2021/12/01 10:21:14;;;;;;;;;;;5.20;99.90;;;;;;5107864;27;19924;-53
2021/12/01 10:23:44;;;;;;;;;;;5.10;99.90;;;;;;5101919;27;19924;-53
2021/12/01 10:26:16;;;;;;;;;;;5.20;99.90;;;;;;5100203;27;19947;-53
2021/12/01 10:28:43;;;;;;;;;;;5.10;99.90;;;;;;5105165;27;20431;-54
2021/12/01 10:31:10;;;;;;;;;;;5.00;99.90;;;;;;5110629;27;19935;-53
2021/12/01 10:33:37;;;;;;;;;;;5.00;99.90;;;;;;5120888;27;19980;-52
2021/12/01 10:36:07;;;;;;;;;;;5.00;99.90;;;;;;5100230;28;20356;-54
2021/12/01 10:38:36;;;;;;;;;;;5.00;99.90;;;;;;5103774;27;19931;-53
2021/12/01 10:41:07;;;;;;;;;;;5.00;99.90;;;;;;5109115;27;19924;-53
2021/12/01 10:43:45;;;;;;;;;;;5.00;99.90;;;;;;5106326;27;19953;-53
2021/12/01 10:46:12;;;;;;;;;;;5.10;99.90;;;;;;5103178;27;19978;-53
2021/12/01 10:48:40;;;;;;;;;;;5.30;99.90;;;;;;5111939;27;19944;-53
2021/12/01 10:51:09;;;;;;;;;;;5.20;99.90;;;;;;5102194;28;20236;-53
2021/12/01 10:53:36;;;;;;;;;;;5.10;99.90;;;;;;5109248;27;19969;-52
2021/12/01 10:56:04;;;;;;;;;;;5.10;99.90;;;;;;5104426;27;19924;-53
2021/12/01 10:58:36;;;;;;;;;;;5.00;99.90;;;;;;5105324;27;20346;-54
2021/12/01 11:01:04;;;;;;;;;;;5.10;99.90;;;;;;5101341;27;20382;-54
2021/12/01 11:03:32;;;;;;;;;;;5.20;99.90;;;;;;5114621;27;19939;-53
2021/12/01 11:06:09;;;;;;;;;;;5.20;99.90;;;;;;5104649;28;20342;-54
2021/12/01 11:08:36;;;;;;;;;;;5.10;99.90;;;;;;5106602;27;19924;-53
2021/12/01 11:11:05;;;;;;;;;;;5.20;99.90;;;;;;5105042;27;19924;-54
2021/12/01 11:13:32;;;;;;;;;;;5.20;99.90;;;;;;5100860;28;20453;-53
2021/12/01 11:16:01;;;;;;;;;;;5.30;99.90;;;;;;5098823;28;19967;-54
2021/12/01 11:18:29;;;;;;;;;;;5.70;99.90;;;;;;5108999;28;20293;-54
2021/12/01 11:20:57;;;;;;;;;;;5.90;99.90;;;;;;5112071;28;19927;-54
2021/12/01 11:23:25;;;;;;;;;;;6.00;99.90;;;;;;5093706;28;19930;-54
2021/12/01 11:25:53;;;;;;;;;;;6.10;99.90;;;;;;5092290;28;19924;-53
2021/12/01 11:28:21;;;;;;;;;;;5.90;99.90;;;;;;5110824;28;19924;-54
2021/12/01 11:30:49;;;;;;;;;;;5.90;99.90;;;;;;5111963;28;20411;-53
2021/12/01 11:33:18;;;;;;;;;;;6.00;99.90;;;;;;5112565;28;20321;-55
2021/12/01 11:35:45;;;;;;;;;;;6.10;99.90;;;;;;5112407;28;20405;-54
2021/12/01 11:38:13;;;;;;;;;;;6.00;99.90;;;;;;5112611;28;19924;-54
2021/12/01 11:40:40;;;;;;;;;;;6.10;99.90;;;;;;5107721;28;19925;-54
2021/12/01 11:43:09;;;;;;;;;;;6.20;99.90;;;;;;5104137;28;19969;-54
2021/12/01 11:45:36;;;;;;;;;;;6.30;99.90;;;;;;5112082;28;19924;-54
2021/12/01 11:48:03;;;;;;;;;;;6.40;99.90;;;;;;5109879;28;19969;-53
2021/12/01 11:50:33;;;;;;;;;;;6.30;99.90;;;;;;5112113;28;19977;-53
2021/12/01 11:53:11;;;;;;;;;;;6.20;99.90;;;;;;5112063;28;20378;-53
2021/12/01 11:55:48;;;;;;;;;;;6.20;99.90;;;;;;5112072;28;19976;-55
2021/12/01 11:58:29;;;;;;;;;;;6.10;99.90;;;;;;5108358;28;19969;-54
2021/12/01 12:00:56;;;;;;;;;;;6.10;99.90;;;;;;5111468;28;20335;-54
2021/12/01 12:03:26;;;;;;;;;;;6.10;99.90;;;;;;5109621;28;19992;-54
2021/12/01 12:06:20;;;;;;;;;;;5.70;99.90;;;;;;5109344;28;19977;-54
2021/12/01 12:08:58;;;;;;;;;;;5.70;99.90;;;;;;5078294;28;19928;-54
2021/12/01 12:11:34;;;;;;;;;;;5.60;99.90;;;;;;5091393;28;19924;-55
2021/12/01 12:14:02;;;;;;;;;;;5.70;99.90;;;;;;5097522;28;20014;-54
2021/12/01 12:16:28;;;;;;;;;;;5.80;99.90;;;;;;5111698;28;19990;-54
2021/12/01 12:18:56;;;;;;;;;;;5.70;99.90;;;;;;5111507;28;19985;-54
2021/12/01 12:21:27;;;;;;;;;;;5.70;99.90;;;;;;5111686;28;20301;-55
2021/12/01 12:23:54;;;;;;;;;;;5.70;99.90;;;;;;5110117;28;19924;-53
2021/12/01 12:26:35;;;;;;;;;;;5.70;99.90;;;;;;5091906;28;20022;-53
2021/12/01 12:29:05;;;;;;;;;;;5.70;99.90;;;;;;5095135;28;20049;-54
2021/12/01 12:31:32;;;;;;;;;;;5.70;99.90;;;;;;5094764;28;19924;-54
2021/12/01 12:34:01;;;;;;;;;;;5.70;99.90;;;;;;5094987;28;19928;-54
2021/12/01 12:36:42;;;;;;;;;;;5.70;99.90;;;;;;5094843;28;19975;-55
2021/12/01 12:39:11;;;;;;;;;;;5.60;99.90;;;;;;5107604;28;19973;-54
2021/12/01 12:41:57;;;;;;;;;;;5.60;99.90;;;;;;5096165;28;19931;-53
2021/12/01 12:44:29;;;;;;;;;;;5.60;99.90;;;;;;5095009;28;20007;-54
2021/12/01 12:47:01;;;;;;;;;;;5.70;99.90;;;;;;5094783;28;19924;-53
2021/12/01 12:49:36;;;;;;;;;;;5.70;99.90;;;;;;5094780;28;19997;-53
2021/12/01 12:52:18;;;;;;;;;;;5.80;99.90;;;;;;5094576;28;19939;-55
2021/12/01 12:54:44;;;;;;;;;;;5.80;99.90;;;;;;5095880;28;20367;-55
2021/12/01 12:57:13;;;;;;;;;;;5.70;99.90;;;;;;5094552;28;19924;-55
2021/12/01 12:59:41;;;;;;;;;;;5.50;99.90;;;;;;5094700;28;20003;-53
2021/12/01 13:02:27;;;;;;;;;;;5.50;99.90;;;;;;5094175;28;19938;-54
2021/12/01 13:04:57;;;;;;;;;;;5.70;99.90;;;;;;5094393;28;19927;-54
2021/12/01 13:07:38;;;;;;;;;;;5.70;99.90;;;;;;5094543;28;19924;-54
2021/12/01 13:10:06;;;;;;;;;;;5.60;99.90;;;;;;5094415;28;20329;-55
2021/12/01 13:12:43;;;;;;;;;;;5.90;99.90;;;;;;5094127;28;19924;-55
2021/12/01 13:15:19;;;;;;;;;;;6.00;99.90;;;;;;5094163;28;19931;-53
2021/12/01 13:17:47;;;;;;;;;;;6.10;99.90;;;;;;5100741;28;19930;-53
2021/12/01 13:20:14;;;;;;;;;;;6.10;99.90;;;;;;5114680;28;20018;-53
2021/12/01 13:22:40;;;;;;;;;;;6.10;99.90;;;;;;5107615;28;19928;-54
2021/12/01 13:25:09;;;;;;;;;;;6.00;99.90;;;;;;5094205;28;19928;-54
2021/12/01 13:27:42;;;;;;;;;;;6.00;99.90;;;;;;5096536;28;19928;-54
2021/12/01 13:30:10;;;;;;;;;;;6.20;99.90;;;;;;5114048;28;19928;-55
2021/12/01 13:32:38;;;;;;;;;;;6.10;99.90;;;;;;5114462;28;19969;-54
2021/12/01 13:35:05;;;;;;;;;;;6.30;99.90;;;;;;5114489;28;19924;-53
2021/12/01 13:37:32;;;;;;;;;;;6.20;99.90;;;;;;5113876;28;19966;-54
2021/12/01 13:39:59;;;;;;;;;;;6.20;99.90;;;;;;5094175;28;20390;-53
2021/12/01 13:42:32;;;;;;;;;;;6.40;99.90;;;;;;5093490;28;19977;-55
2021/12/01 13:44:59;;;;;;;;;;;6.50;99.90;;;;;;5094991;28;20124;-53
2021/12/01 13:47:28;;;;;;;;;;;6.40;99.90;;;;;;5093711;28;19928;-54
2021/12/01 13:49:59;;;;;;;;;;;6.50;99.90;;;;;;5093734;28;19927;-53
2021/12/01 13:52:27;;;;;;;;;;;6.60;99.90;;;;;;5093458;28;20385;-54
2021/12/01 13:54:54;;;;;;;;;;;6.60;99.90;;;;;;5093816;28;19924;-55
2021/12/01 13:57:20;;;;;;;;;;;6.60;99.90;;;;;;5093820;28;19928;-54
2021/12/01 13:59:48;;;;;;;;;;;6.50;99.90;;;;;;5093554;28;19923;-54
2021/12/01 14:02:23;;;;;;;;;;;6.40;99.90;;;;;;5108560;28;19931;-53
2021/12/01 14:04:50;;;;;;;;;;;6.30;99.90;;;;;;5113851;28;20447;-54
2021/12/01 14:07:18;;;;;;;;;;;6.10;99.90;;;;;;5113708;28;19977;-54
2021/12/01 14:09:58;;;;;;;;;;;6.10;99.90;;;;;;5113729;28;20393;-53
2021/12/01 14:12:29;;;;;;;;;;;6.20;99.90;;;;;;5113808;28;20352;-54
2021/12/01 14:14:56;;;;;;;;;;;6.20;99.90;;;;;;5113642;28;19927;-53
2021/12/01 14:17:23;;;;;;;;;;;6.20;99.90;;;;;;5106527;28;19932;-55
2021/12/01 14:19:54;;;;;;;;;;;6.40;99.90;;;;;;5093140;28;20484;-55
2021/12/01 14:22:22;;;;;;;;;;;6.40;99.90;;;;;;5092818;28;20389;-54
2021/12/01 14:24:53;;;;;;;;;;;6.40;99.90;;;;;;5096681;28;19981;-53
2021/12/01 14:27:24;;;;;;;;;;;6.60;99.90;;;;;;5093059;28;19938;-54
2021/12/01 14:29:51;;;;;;;;;;;6.90;99.90;;;;;;5092887;28;20019;-54
2021/12/01 14:32:23;;;;;;;;;;;6.70;99.90;;;;;;5092749;28;19935;-53
2021/12/01 14:34:49;;;;;;;;;;;6.40;99.90;;;;;;5109949;28;19924;-53
2021/12/01 14:37:17;;;;;;;;;;;6.30;99.90;;;;;;5113190;28;20532;-53
2021/12/01 14:39:46;;;;;;;;;;;6.40;99.90;;;;;;5095530;28;20340;-54
2021/12/01 14:42:14;;;;;;;;;;;6.30;99.90;;;;;;5106186;28;19946;-54